sensor_id;sensor_type;location;lat;lon;timestamp;temperature;humidity
3727;DHT22;1879;45.876;12.300;2023-10-19T00:02:11;13.20;99.90
3727;DHT22;1879;45.876;12.300;2023-10-19T00:04:41;13.10;99.90
3727;DHT22;1879;45.876;12.300;2023-10-19T00:07:08;13.10;99.90
3727;DHT22;1879;45.876;12.300;2023-10-19T00:09:41;13.10;99.90
3727;DHT22;1879;45.876;12.300;2023-10-19T00:12:11;13.10;99.90
3727;DHT22;1879;45.876;12.300;2023-10-19T00:14:40;13.20;99.90
3727;DHT22;1879;45.876;12.300;2023-10-19T00:17:07;13.10;99.90
3727;DHT22;1879;45.876;12.300;2023-10-19T00:19:38;13.20;99.90
3727;DHT22;1879;45.876;12.300;2023-10-19T00:22:22;13.10;99.90
3727;DHT22;1879;45.876;12.300;2023-10-19T00:24:49;13.10;99.90
3727;DHT22;1879;45.876;12.300;2023-10-19T00:27:16;13.00;99.90
3727;DHT22;1879;45.876;12.300;2023-10-19T00:29:43;13.00;99.90
3727;DHT22;1879;45.876;12.300;2023-10-19T00:32:15;13.00;99.90
3727;DHT22;1879;45.876;12.300;2023-10-19T00:34:46;13.10;99.90
3727;DHT22;1879;45.876;12.300;2023-10-19T00:37:18;13.20;99.90
3727;DHT22;1879;45.876;12.300;2023-10-19T00:39:52;13.20;99.90
3727;DHT22;1879;45.876;12.300;2023-10-19T00:42:21;13.30;99.90
3727;DHT22;1879;45.876;12.300;2023-10-19T00:44:51;13.30;99.90
3727;DHT22;1879;45.876;12.300;2023-10-19T00:47:26;13.30;99.90
3727;DHT22;1879;45.876;12.300;2023-10-19T00:50:02;13.30;99.90
3727;DHT22;1879;45.876;12.300;2023-10-19T00:52:31;13.40;99.90
3727;DHT22;1879;45.876;12.300;2023-10-19T00:55:07;13.40;99.90
3727;DHT22;1879;45.876;12.300;2023-10-19T00:57:40;13.40;99.90
3727;DHT22;1879;45.876;12.300;2023-10-19T01:00:12;13.50;99.90
3727;DHT22;1879;45.876;12.300;2023-10-19T01:02:48;13.50;99.90
3727;DHT22;1879;45.876;12.300;2023-10-19T01:05:18;13.60;99.90
3727;DHT22;1879;45.876;12.300;2023-10-19T01:07:48;13.60;99.90
3727;DHT22;1879;45.876;12.300;2023-10-19T01:10:22;13.60;99.90
3727;DHT22;1879;45.876;12.300;2023-10-19T01:12:53;13.60;99.90
3727;DHT22;1879;45.876;12.300;2023-10-19T01:15:22;13.60;99.90
3727;DHT22;1879;45.876;12.300;2023-10-19T01:17:55;13.60;99.90
3727;DHT22;1879;45.876;12.300;2023-10-19T01:20:26;13.70;99.90
3727;DHT22;1879;45.876;12.300;2023-10-19T01:23:15;13.70;99.90
3727;DHT22;1879;45.876;12.300;2023-10-19T01:25:52;13.60;99.90
3727;DHT22;1879;45.876;12.300;2023-10-19T01:28:27;13.60;99.90
3727;DHT22;1879;45.876;12.300;2023-10-19T01:31:08;13.60;99.90
3727;DHT22;1879;45.876;12.300;2023-10-19T01:33:40;13.50;99.90
3727;DHT22;1879;45.876;12.300;2023-10-19T01:36:07;13.60;99.90
3727;DHT22;1879;45.876;12.300;2023-10-19T01:38:41;13.60;99.90
3727;DHT22;1879;45.876;12.300;2023-10-19T01:41:09;13.70;99.90
3727;DHT22;1879;45.876;12.300;2023-10-19T01:43:40;13.70;99.90
3727;DHT22;1879;45.876;12.300;2023-10-19T01:46:08;13.70;99.90
3727;DHT22;1879;45.876;12.300;2023-10-19T01:48:38;13.70;99.90
3727;DHT22;1879;45.876;12.300;2023-10-19T01:51:07;13.70;99.90
3727;DHT22;1879;45.876;12.300;2023-10-19T01:53:36;13.70;99.90
3727;DHT22;1879;45.876;12.300;2023-10-19T01:56:07;13.70;99.90
3727;DHT22;1879;45.876;12.300;2023-10-19T01:58:35;13.80;99.90
3727;DHT22;1879;45.876;12.300;2023-10-19T02:01:03;13.80;99.90
3727;DHT22;1879;45.876;12.300;2023-10-19T02:03:34;13.80;99.90
3727;DHT22;1879;45.876;12.300;2023-10-19T02:06:02;13.80;99.90
3727;DHT22;1879;45.876;12.300;2023-10-19T02:08:37;13.80;99.90
3727;DHT22;1879;45.876;12.300;2023-10-19T02:11:07;13.80;99.90
3727;DHT22;1879;45.876;12.300;2023-10-19T02:13:42;13.80;99.90
3727;DHT22;1879;45.876;12.300;2023-10-19T02:16:11;13.80;99.90
3727;DHT22;1879;45.876;12.300;2023-10-19T02:18:37;13.80;99.90
3727;DHT22;1879;45.876;12.300;2023-10-19T02:21:04;13.80;99.90
3727;DHT22;1879;45.876;12.300;2023-10-19T02:23:32;13.90;99.90
3727;DHT22;1879;45.876;12.300;2023-10-19T02:26:01;13.90;99.90
3727;DHT22;1879;45.876;12.300;2023-10-19T02:28:30;13.90;99.90
3727;DHT22;1879;45.876;12.300;2023-10-19T02:30:58;13.90;99.90
3727;DHT22;1879;45.876;12.300;2023-10-19T02:33:37;13.90;99.90
3727;DHT22;1879;45.876;12.300;2023-10-19T02:36:04;14.00;99.90
3727;DHT22;1879;45.876;12.300;2023-10-19T02:38:30;14.00;99.90
3727;DHT22;1879;45.876;12.300;2023-10-19T02:40:58;14.00;99.90
3727;DHT22;1879;45.876;12.300;2023-10-19T02:43:24;14.00;99.90
3727;DHT22;1879;45.876;12.300;2023-10-19T02:45:53;14.00;99.90
3727;DHT22;1879;45.876;12.300;2023-10-19T02:48:19;14.00;99.90
3727;DHT22;1879;45.876;12.300;2023-10-19T02:50:46;14.00;99.90
3727;DHT22;1879;45.876;12.300;2023-10-19T02:53:12;14.00;99.90
3727;DHT22;1879;45.876;12.300;2023-10-19T02:55:39;14.00;99.90
3727;DHT22;1879;45.876;12.300;2023-10-19T02:58:06;14.00;99.90
3727;DHT22;1879;45.876;12.300;2023-10-19T03:00:36;14.00;99.90
3727;DHT22;1879;45.876;12.300;2023-10-19T03:03:04;14.00;99.90
3727;DHT22;1879;45.876;12.300;2023-10-19T03:05:32;14.00;99.90
3727;DHT22;1879;45.876;12.300;2023-10-19T03:08:00;14.00;99.90
3727;DHT22;1879;45.876;12.300;2023-10-19T03:10:31;13.90;99.90
3727;DHT22;1879;45.876;12.300;2023-10-19T03:13:00;13.90;99.90
3727;DHT22;1879;45.876;12.300;2023-10-19T03:15:30;14.00;99.90
3727;DHT22;1879;45.876;12.300;2023-10-19T03:17:58;14.00;99.90
3727;DHT22;1879;45.876;12.300;2023-10-19T03:20:27;14.00;99.90
3727;DHT22;1879;45.876;12.300;2023-10-19T03:22:53;14.00;99.90
3727;DHT22;1879;45.876;12.300;2023-10-19T03:25:24;14.00;99.90
3727;DHT22;1879;45.876;12.300;2023-10-19T03:28:08;14.00;99.90
3727;DHT22;1879;45.876;12.300;2023-10-19T03:30:37;14.00;99.90
3727;DHT22;1879;45.876;12.300;2023-10-19T03:33:05;14.00;99.90
3727;DHT22;1879;45.876;12.300;2023-10-19T03:35:36;14.00;99.90
3727;DHT22;1879;45.876;12.300;2023-10-19T03:38:04;14.00;99.90
3727;DHT22;1879;45.876;12.300;2023-10-19T03:40:40;14.00;99.90
3727;DHT22;1879;45.876;12.300;2023-10-19T03:43:07;13.90;99.90
3727;DHT22;1879;45.876;12.300;2023-10-19T03:45:40;13.90;99.90
3727;DHT22;1879;45.876;12.300;2023-10-19T03:48:12;13.90;99.90
3727;DHT22;1879;45.876;12.300;2023-10-19T03:50:43;13.90;99.90
3727;DHT22;1879;45.876;12.300;2023-10-19T03:53:10;14.00;99.90
3727;DHT22;1879;45.876;12.300;2023-10-19T03:55:38;14.00;99.90
3727;DHT22;1879;45.876;12.300;2023-10-19T03:58:08;14.00;99.90
3727;DHT22;1879;45.876;12.300;2023-10-19T04:00:37;14.10;99.90
3727;DHT22;1879;45.876;12.300;2023-10-19T04:03:04;14.10;99.90
3727;DHT22;1879;45.876;12.300;2023-10-19T04:05:32;14.20;99.90
3727;DHT22;1879;45.876;12.300;2023-10-19T04:08:05;14.20;99.90
3727;DHT22;1879;45.876;12.300;2023-10-19T04:10:38;14.20;99.90
3727;DHT22;1879;45.876;12.300;2023-10-19T04:13:10;14.10;99.90
3727;DHT22;1879;45.876;12.300;2023-10-19T04:15:38;14.10;99.90
3727;DHT22;1879;45.876;12.300;2023-10-19T04:18:05;14.10;99.90
3727;DHT22;1879;45.876;12.300;2023-10-19T04:20:35;14.10;99.90
3727;DHT22;1879;45.876;12.300;2023-10-19T04:23:09;14.10;99.90
3727;DHT22;1879;45.876;12.300;2023-10-19T04:25:39;14.10;99.90
3727;DHT22;1879;45.876;12.300;2023-10-19T04:28:06;14.10;99.90
3727;DHT22;1879;45.876;12.300;2023-10-19T04:30:34;14.10;99.90
3727;DHT22;1879;45.876;12.300;2023-10-19T04:33:03;14.10;99.90
3727;DHT22;1879;45.876;12.300;2023-10-19T04:35:34;14.10;99.90
3727;DHT22;1879;45.876;12.300;2023-10-19T04:38:04;14.10;99.90
3727;DHT22;1879;45.876;12.300;2023-10-19T04:40:33;14.10;99.90
3727;DHT22;1879;45.876;12.300;2023-10-19T04:43:02;14.10;99.90
3727;DHT22;1879;45.876;12.300;2023-10-19T04:45:29;14.10;99.90
3727;DHT22;1879;45.876;12.300;2023-10-19T04:47:56;14.10;99.90
3727;DHT22;1879;45.876;12.300;2023-10-19T04:50:23;14.10;99.90
3727;DHT22;1879;45.876;12.300;2023-10-19T04:52:50;14.10;99.90
3727;DHT22;1879;45.876;12.300;2023-10-19T04:55:17;14.20;99.90
3727;DHT22;1879;45.876;12.300;2023-10-19T04:57:46;14.20;99.90
3727;DHT22;1879;45.876;12.300;2023-10-19T05:00:13;14.20;99.90
3727;DHT22;1879;45.876;12.300;2023-10-19T05:02:41;14.20;99.90
3727;DHT22;1879;45.876;12.300;2023-10-19T05:05:08;14.20;99.90
3727;DHT22;1879;45.876;12.300;2023-10-19T05:07:36;14.20;99.90
3727;DHT22;1879;45.876;12.300;2023-10-19T05:10:03;14.10;99.90
3727;DHT22;1879;45.876;12.300;2023-10-19T05:12:31;14.20;99.90
3727;DHT22;1879;45.876;12.300;2023-10-19T05:15:00;14.20;99.90
3727;DHT22;1879;45.876;12.300;2023-10-19T05:17:26;14.30;99.90
3727;DHT22;1879;45.876;12.300;2023-10-19T05:19:53;14.30;99.90
3727;DHT22;1879;45.876;12.300;2023-10-19T05:22:21;14.40;99.90
3727;DHT22;1879;45.876;12.300;2023-10-19T05:24:50;14.40;99.90
3727;DHT22;1879;45.876;12.300;2023-10-19T05:27:17;14.40;99.90
3727;DHT22;1879;45.876;12.300;2023-10-19T05:29:45;14.40;99.90
3727;DHT22;1879;45.876;12.300;2023-10-19T05:32:13;14.30;99.90
3727;DHT22;1879;45.876;12.300;2023-10-19T05:34:40;14.30;99.90
3727;DHT22;1879;45.876;12.300;2023-10-19T05:37:07;14.30;99.90
3727;DHT22;1879;45.876;12.300;2023-10-19T05:39:36;14.30;99.90
3727;DHT22;1879;45.876;12.300;2023-10-19T05:42:03;14.40;99.90
3727;DHT22;1879;45.876;12.300;2023-10-19T05:44:30;14.40;99.90
3727;DHT22;1879;45.876;12.300;2023-10-19T05:46:57;14.40;99.90
3727;DHT22;1879;45.876;12.300;2023-10-19T05:49:25;14.40;99.90
3727;DHT22;1879;45.876;12.300;2023-10-19T05:51:53;14.50;99.90
3727;DHT22;1879;45.876;12.300;2023-10-19T05:54:21;14.50;99.90
3727;DHT22;1879;45.876;12.300;2023-10-19T05:56:49;14.50;99.90
3727;DHT22;1879;45.876;12.300;2023-10-19T05:59:17;14.40;99.90
3727;DHT22;1879;45.876;12.300;2023-10-19T06:01:44;14.40;99.90
3727;DHT22;1879;45.876;12.300;2023-10-19T06:04:12;14.30;99.90
3727;DHT22;1879;45.876;12.300;2023-10-19T06:06:41;14.30;99.90
3727;DHT22;1879;45.876;12.300;2023-10-19T06:09:08;14.30;99.90
3727;DHT22;1879;45.876;12.300;2023-10-19T06:11:35;14.30;99.90
3727;DHT22;1879;45.876;12.300;2023-10-19T06:14:03;14.40;99.90
3727;DHT22;1879;45.876;12.300;2023-10-19T06:16:32;14.50;99.90
3727;DHT22;1879;45.876;12.300;2023-10-19T06:19:00;14.50;99.90
3727;DHT22;1879;45.876;12.300;2023-10-19T06:21:28;14.50;99.90
3727;DHT22;1879;45.876;12.300;2023-10-19T06:23:57;14.60;99.90
3727;DHT22;1879;45.876;12.300;2023-10-19T06:26:24;14.60;99.90
3727;DHT22;1879;45.876;12.300;2023-10-19T06:28:51;14.60;99.90
3727;DHT22;1879;45.876;12.300;2023-10-19T06:31:23;14.70;99.90
3727;DHT22;1879;45.876;12.300;2023-10-19T06:33:50;14.70;99.90
3727;DHT22;1879;45.876;12.300;2023-10-19T06:36:17;14.70;99.90
3727;DHT22;1879;45.876;12.300;2023-10-19T06:38:44;14.70;99.90
3727;DHT22;1879;45.876;12.300;2023-10-19T06:41:13;14.80;99.90
3727;DHT22;1879;45.876;12.300;2023-10-19T06:43:42;14.80;99.90
3727;DHT22;1879;45.876;12.300;2023-10-19T06:46:09;14.80;99.90
3727;DHT22;1879;45.876;12.300;2023-10-19T06:48:37;14.80;99.90
3727;DHT22;1879;45.876;12.300;2023-10-19T06:51:04;14.80;99.90
3727;DHT22;1879;45.876;12.300;2023-10-19T06:53:31;14.80;99.90
3727;DHT22;1879;45.876;12.300;2023-10-19T06:55:59;14.80;99.90
3727;DHT22;1879;45.876;12.300;2023-10-19T06:58:27;15.00;99.90
3727;DHT22;1879;45.876;12.300;2023-10-19T07:00:54;15.10;99.90
3727;DHT22;1879;45.876;12.300;2023-10-19T07:03:25;15.20;99.90
3727;DHT22;1879;45.876;12.300;2023-10-19T07:05:54;15.20;99.90
3727;DHT22;1879;45.876;12.300;2023-10-19T07:08:23;15.10;99.90
3727;DHT22;1879;45.876;12.300;2023-10-19T07:10:52;15.10;99.90
3727;DHT22;1879;45.876;12.300;2023-10-19T07:13:20;15.10;99.90
3727;DHT22;1879;45.876;12.300;2023-10-19T07:15:48;15.10;99.90
3727;DHT22;1879;45.876;12.300;2023-10-19T07:18:17;15.10;99.90
3727;DHT22;1879;45.876;12.300;2023-10-19T07:20:44;15.10;99.90
3727;DHT22;1879;45.876;12.300;2023-10-19T07:23:14;15.00;99.90
3727;DHT22;1879;45.876;12.300;2023-10-19T07:25:46;15.10;99.90
3727;DHT22;1879;45.876;12.300;2023-10-19T07:28:18;15.00;99.90
3727;DHT22;1879;45.876;12.300;2023-10-19T07:30:48;15.00;99.90
3727;DHT22;1879;45.876;12.300;2023-10-19T07:33:17;14.90;99.90
3727;DHT22;1879;45.876;12.300;2023-10-19T07:35:46;14.90;99.90
3727;DHT22;1879;45.876;12.300;2023-10-19T07:38:13;14.90;99.90
3727;DHT22;1879;45.876;12.300;2023-10-19T07:40:40;15.00;99.90
3727;DHT22;1879;45.876;12.300;2023-10-19T07:43:07;15.00;99.90
3727;DHT22;1879;45.876;12.300;2023-10-19T07:45:35;15.00;99.90
3727;DHT22;1879;45.876;12.300;2023-10-19T07:48:05;15.00;99.90
3727;DHT22;1879;45.876;12.300;2023-10-19T07:50:37;15.10;99.90
3727;DHT22;1879;45.876;12.300;2023-10-19T07:53:06;15.20;99.90
3727;DHT22;1879;45.876;12.300;2023-10-19T07:55:33;15.20;99.90
3727;DHT22;1879;45.876;12.300;2023-10-19T07:58:00;15.20;99.90
3727;DHT22;1879;45.876;12.300;2023-10-19T08:00:29;15.30;99.90
3727;DHT22;1879;45.876;12.300;2023-10-19T08:02:56;15.30;99.90
3727;DHT22;1879;45.876;12.300;2023-10-19T08:05:25;15.40;99.90
3727;DHT22;1879;45.876;12.300;2023-10-19T08:07:53;15.30;99.90
3727;DHT22;1879;45.876;12.300;2023-10-19T08:10:22;15.40;99.90
3727;DHT22;1879;45.876;12.300;2023-10-19T08:12:51;15.40;99.90
3727;DHT22;1879;45.876;12.300;2023-10-19T08:15:19;15.50;99.90
3727;DHT22;1879;45.876;12.300;2023-10-19T08:17:49;15.60;99.90
3727;DHT22;1879;45.876;12.300;2023-10-19T08:20:16;15.60;99.90
3727;DHT22;1879;45.876;12.300;2023-10-19T08:22:51;15.60;99.90
3727;DHT22;1879;45.876;12.300;2023-10-19T08:25:18;15.70;99.90
3727;DHT22;1879;45.876;12.300;2023-10-19T08:27:46;15.80;99.90
3727;DHT22;1879;45.876;12.300;2023-10-19T08:30:17;15.80;99.90
3727;DHT22;1879;45.876;12.300;2023-10-19T08:32:45;15.90;99.90
3727;DHT22;1879;45.876;12.300;2023-10-19T08:35:13;15.90;99.90
3727;DHT22;1879;45.876;12.300;2023-10-19T08:37:40;15.90;99.90
3727;DHT22;1879;45.876;12.300;2023-10-19T08:40:11;15.80;99.90
3727;DHT22;1879;45.876;12.300;2023-10-19T08:42:40;15.80;99.90
3727;DHT22;1879;45.876;12.300;2023-10-19T08:45:08;15.80;99.90
3727;DHT22;1879;45.876;12.300;2023-10-19T08:47:36;15.90;99.90
3727;DHT22;1879;45.876;12.300;2023-10-19T08:50:04;15.90;99.90
3727;DHT22;1879;45.876;12.300;2023-10-19T08:52:32;15.90;99.90
3727;DHT22;1879;45.876;12.300;2023-10-19T08:55:00;16.00;99.90
3727;DHT22;1879;45.876;12.300;2023-10-19T08:57:28;16.10;99.90
3727;DHT22;1879;45.876;12.300;2023-10-19T08:59:56;16.20;99.90
3727;DHT22;1879;45.876;12.300;2023-10-19T09:02:24;16.20;99.90
3727;DHT22;1879;45.876;12.300;2023-10-19T09:04:52;16.20;99.90
3727;DHT22;1879;45.876;12.300;2023-10-19T09:07:24;16.10;99.90
3727;DHT22;1879;45.876;12.300;2023-10-19T09:09:56;16.00;99.90
3727;DHT22;1879;45.876;12.300;2023-10-19T09:12:23;16.00;99.90
3727;DHT22;1879;45.876;12.300;2023-10-19T09:14:53;16.10;99.90
3727;DHT22;1879;45.876;12.300;2023-10-19T09:17:27;16.10;99.90
3727;DHT22;1879;45.876;12.300;2023-10-19T09:19:55;16.30;99.90
3727;DHT22;1879;45.876;12.300;2023-10-19T09:22:25;16.40;99.90
3727;DHT22;1879;45.876;12.300;2023-10-19T09:24:52;16.50;99.90
3727;DHT22;1879;45.876;12.300;2023-10-19T09:27:21;16.70;99.90
3727;DHT22;1879;45.876;12.300;2023-10-19T09:29:49;16.90;99.90
3727;DHT22;1879;45.876;12.300;2023-10-19T09:32:18;17.10;99.90
3727;DHT22;1879;45.876;12.300;2023-10-19T09:34:45;17.50;99.90
3727;DHT22;1879;45.876;12.300;2023-10-19T09:37:14;17.90;99.90
3727;DHT22;1879;45.876;12.300;2023-10-19T09:39:43;18.10;99.90
3727;DHT22;1879;45.876;12.300;2023-10-19T09:42:11;18.00;99.90
3727;DHT22;1879;45.876;12.300;2023-10-19T09:44:43;18.10;99.90
3727;DHT22;1879;45.876;12.300;2023-10-19T09:47:12;18.10;99.90
3727;DHT22;1879;45.876;12.300;2023-10-19T09:49:42;18.30;99.90
3727;DHT22;1879;45.876;12.300;2023-10-19T09:52:10;18.30;99.90
3727;DHT22;1879;45.876;12.300;2023-10-19T09:54:49;18.30;99.90
3727;DHT22;1879;45.876;12.300;2023-10-19T09:57:25;18.40;99.90
3727;DHT22;1879;45.876;12.300;2023-10-19T10:00:00;18.30;99.90
3727;DHT22;1879;45.876;12.300;2023-10-19T10:02:34;18.40;99.90
3727;DHT22;1879;45.876;12.300;2023-10-19T10:05:03;18.40;99.90
3727;DHT22;1879;45.876;12.300;2023-10-19T10:07:31;18.60;99.90
3727;DHT22;1879;45.876;12.300;2023-10-19T10:09:58;18.70;99.90
3727;DHT22;1879;45.876;12.300;2023-10-19T10:12:26;18.80;99.90
3727;DHT22;1879;45.876;12.300;2023-10-19T10:14:58;18.80;99.90
3727;DHT22;1879;45.876;12.300;2023-10-19T10:17:27;18.70;99.90
3727;DHT22;1879;45.876;12.300;2023-10-19T10:19:56;18.70;99.90
3727;DHT22;1879;45.876;12.300;2023-10-19T10:22:27;18.70;99.90
3727;DHT22;1879;45.876;12.300;2023-10-19T10:24:54;18.70;99.90
3727;DHT22;1879;45.876;12.300;2023-10-19T10:27:22;18.70;99.90
3727;DHT22;1879;45.876;12.300;2023-10-19T10:29:54;18.60;99.90
3727;DHT22;1879;45.876;12.300;2023-10-19T10:32:49;18.60;99.90
3727;DHT22;1879;45.876;12.300;2023-10-19T10:38:20;18.40;99.90
3727;DHT22;1879;45.876;12.300;2023-10-19T10:40:49;18.30;99.90
3727;DHT22;1879;45.876;12.300;2023-10-19T10:43:17;18.30;99.90
3727;DHT22;1879;45.876;12.300;2023-10-19T10:45:44;18.30;99.90
3727;DHT22;1879;45.876;12.300;2023-10-19T10:48:12;18.20;99.90
3727;DHT22;1879;45.876;12.300;2023-10-19T10:50:39;18.10;99.90
3727;DHT22;1879;45.876;12.300;2023-10-19T10:53:07;18.20;99.90
3727;DHT22;1879;45.876;12.300;2023-10-19T10:55:38;18.30;99.90
3727;DHT22;1879;45.876;12.300;2023-10-19T10:58:05;18.30;99.90
3727;DHT22;1879;45.876;12.300;2023-10-19T11:00:32;18.30;99.90
3727;DHT22;1879;45.876;12.300;2023-10-19T11:03:03;18.30;99.90
3727;DHT22;1879;45.876;12.300;2023-10-19T11:05:33;18.20;99.90
3727;DHT22;1879;45.876;12.300;2023-10-19T11:08:06;18.30;99.90
3727;DHT22;1879;45.876;12.300;2023-10-19T11:10:35;18.30;99.90
3727;DHT22;1879;45.876;12.300;2023-10-19T11:13:05;18.40;99.90
3727;DHT22;1879;45.876;12.300;2023-10-19T11:15:32;18.40;99.90
3727;DHT22;1879;45.876;12.300;2023-10-19T11:17:59;18.30;99.90
3727;DHT22;1879;45.876;12.300;2023-10-19T11:20:27;18.20;99.90
3727;DHT22;1879;45.876;12.300;2023-10-19T11:22:55;18.10;99.90
3727;DHT22;1879;45.876;12.300;2023-10-19T11:25:24;18.10;99.90
3727;DHT22;1879;45.876;12.300;2023-10-19T11:27:54;18.10;99.90
3727;DHT22;1879;45.876;12.300;2023-10-19T11:30:26;18.10;99.90
3727;DHT22;1879;45.876;12.300;2023-10-19T11:32:54;18.10;99.90
3727;DHT22;1879;45.876;12.300;2023-10-19T11:35:24;18.10;99.90
3727;DHT22;1879;45.876;12.300;2023-10-19T11:37:53;18.10;99.90
3727;DHT22;1879;45.876;12.300;2023-10-19T11:40:21;18.00;99.90
3727;DHT22;1879;45.876;12.300;2023-10-19T11:42:48;18.00;99.90
3727;DHT22;1879;45.876;12.300;2023-10-19T11:45:16;18.10;99.90
3727;DHT22;1879;45.876;12.300;2023-10-19T11:47:45;18.20;99.90
3727;DHT22;1879;45.876;12.300;2023-10-19T11:50:12;18.30;99.90
3727;DHT22;1879;45.876;12.300;2023-10-19T11:52:41;18.40;99.90
3727;DHT22;1879;45.876;12.300;2023-10-19T11:55:08;18.40;99.90
3727;DHT22;1879;45.876;12.300;2023-10-19T11:57:36;18.40;99.90
3727;DHT22;1879;45.876;12.300;2023-10-19T12:00:03;18.30;99.90
3727;DHT22;1879;45.876;12.300;2023-10-19T12:02:35;18.20;99.90
3727;DHT22;1879;45.876;12.300;2023-10-19T12:05:05;18.20;99.90
3727;DHT22;1879;45.876;12.300;2023-10-19T12:07:36;18.20;99.90
3727;DHT22;1879;45.876;12.300;2023-10-19T12:10:04;18.20;99.90
3727;DHT22;1879;45.876;12.300;2023-10-19T12:12:31;18.20;99.90
3727;DHT22;1879;45.876;12.300;2023-10-19T12:14:58;18.20;99.90
3727;DHT22;1879;45.876;12.300;2023-10-19T12:17:25;18.20;99.90
3727;DHT22;1879;45.876;12.300;2023-10-19T12:19:53;18.20;99.90
3727;DHT22;1879;45.876;12.300;2023-10-19T12:22:22;18.10;99.90
3727;DHT22;1879;45.876;12.300;2023-10-19T12:24:49;18.00;99.90
3727;DHT22;1879;45.876;12.300;2023-10-19T12:27:17;18.00;99.90
3727;DHT22;1879;45.876;12.300;2023-10-19T12:29:44;18.00;99.90
3727;DHT22;1879;45.876;12.300;2023-10-19T12:32:13;18.00;99.90
3727;DHT22;1879;45.876;12.300;2023-10-19T12:34:40;17.90;99.90
3727;DHT22;1879;45.876;12.300;2023-10-19T12:37:07;17.80;99.90
3727;DHT22;1879;45.876;12.300;2023-10-19T12:39:38;17.80;99.90
3727;DHT22;1879;45.876;12.300;2023-10-19T12:42:11;17.70;99.90
3727;DHT22;1879;45.876;12.300;2023-10-19T12:44:39;17.70;99.90
3727;DHT22;1879;45.876;12.300;2023-10-19T12:47:07;17.70;99.90
3727;DHT22;1879;45.876;12.300;2023-10-19T12:49:39;17.80;99.90
3727;DHT22;1879;45.876;12.300;2023-10-19T12:52:06;17.80;99.90
3727;DHT22;1879;45.876;12.300;2023-10-19T12:54:33;17.80;99.90
3727;DHT22;1879;45.876;12.300;2023-10-19T12:57:03;17.80;99.90
3727;DHT22;1879;45.876;12.300;2023-10-19T12:59:32;17.80;99.90
3727;DHT22;1879;45.876;12.300;2023-10-19T13:01:59;17.80;99.90
3727;DHT22;1879;45.876;12.300;2023-10-19T13:04:28;17.80;99.90
3727;DHT22;1879;45.876;12.300;2023-10-19T13:06:56;17.90;99.90
3727;DHT22;1879;45.876;12.300;2023-10-19T13:09:24;17.90;99.90
3727;DHT22;1879;45.876;12.300;2023-10-19T13:11:57;17.90;99.90
3727;DHT22;1879;45.876;12.300;2023-10-19T13:14:25;17.90;99.90
3727;DHT22;1879;45.876;12.300;2023-10-19T13:16:53;17.90;99.90
3727;DHT22;1879;45.876;12.300;2023-10-19T13:19:20;18.00;99.90
3727;DHT22;1879;45.876;12.300;2023-10-19T13:21:49;18.10;99.90
3727;DHT22;1879;45.876;12.300;2023-10-19T13:24:17;18.20;99.90
3727;DHT22;1879;45.876;12.300;2023-10-19T13:26:46;18.20;99.90
3727;DHT22;1879;45.876;12.300;2023-10-19T13:29:13;18.20;99.90
3727;DHT22;1879;45.876;12.300;2023-10-19T13:31:42;18.20;99.90
3727;DHT22;1879;45.876;12.300;2023-10-19T13:34:14;18.20;99.90
3727;DHT22;1879;45.876;12.300;2023-10-19T13:36:41;18.30;99.90
3727;DHT22;1879;45.876;12.300;2023-10-19T13:39:10;18.30;99.90
3727;DHT22;1879;45.876;12.300;2023-10-19T13:41:42;18.30;99.90
3727;DHT22;1879;45.876;12.300;2023-10-19T13:44:09;18.40;99.90
3727;DHT22;1879;45.876;12.300;2023-10-19T13:46:37;18.30;99.90
3727;DHT22;1879;45.876;12.300;2023-10-19T13:49:05;18.30;99.90
3727;DHT22;1879;45.876;12.300;2023-10-19T13:51:32;18.20;99.90
3727;DHT22;1879;45.876;12.300;2023-10-19T13:53:59;18.10;99.90
3727;DHT22;1879;45.876;12.300;2023-10-19T13:56:26;18.10;99.90
3727;DHT22;1879;45.876;12.300;2023-10-19T13:58:53;18.00;99.90
3727;DHT22;1879;45.876;12.300;2023-10-19T14:01:21;18.00;99.90
3727;DHT22;1879;45.876;12.300;2023-10-19T14:03:51;18.00;99.90
3727;DHT22;1879;45.876;12.300;2023-10-19T14:06:21;18.00;99.90
3727;DHT22;1879;45.876;12.300;2023-10-19T14:08:49;18.00;99.90
3727;DHT22;1879;45.876;12.300;2023-10-19T14:11:17;18.00;99.90
3727;DHT22;1879;45.876;12.300;2023-10-19T14:13:44;18.00;99.90
3727;DHT22;1879;45.876;12.300;2023-10-19T14:16:11;17.90;99.90
3727;DHT22;1879;45.876;12.300;2023-10-19T14:18:38;17.80;99.90
3727;DHT22;1879;45.876;12.300;2023-10-19T14:21:14;17.70;99.90
3727;DHT22;1879;45.876;12.300;2023-10-19T14:23:43;17.60;99.90
3727;DHT22;1879;45.876;12.300;2023-10-19T14:26:10;17.50;99.90
3727;DHT22;1879;45.876;12.300;2023-10-19T14:28:38;17.50;99.90
3727;DHT22;1879;45.876;12.300;2023-10-19T14:31:06;17.50;99.90
3727;DHT22;1879;45.876;12.300;2023-10-19T14:33:34;17.50;99.90
3727;DHT22;1879;45.876;12.300;2023-10-19T14:36:02;17.50;99.90
3727;DHT22;1879;45.876;12.300;2023-10-19T14:38:29;17.50;99.90
3727;DHT22;1879;45.876;12.300;2023-10-19T14:40:59;17.50;99.90
3727;DHT22;1879;45.876;12.300;2023-10-19T14:43:26;17.50;99.90
3727;DHT22;1879;45.876;12.300;2023-10-19T14:45:55;17.40;99.90
3727;DHT22;1879;45.876;12.300;2023-10-19T14:48:22;17.30;99.90
3727;DHT22;1879;45.876;12.300;2023-10-19T14:50:49;17.20;99.90
3727;DHT22;1879;45.876;12.300;2023-10-19T14:53:17;17.10;99.90
3727;DHT22;1879;45.876;12.300;2023-10-19T14:55:44;17.10;99.90
3727;DHT22;1879;45.876;12.300;2023-10-19T14:58:13;17.10;99.90
3727;DHT22;1879;45.876;12.300;2023-10-19T15:00:40;17.20;99.90
3727;DHT22;1879;45.876;12.300;2023-10-19T15:03:10;17.20;99.90
3727;DHT22;1879;45.876;12.300;2023-10-19T15:05:37;17.30;99.90
3727;DHT22;1879;45.876;12.300;2023-10-19T15:08:07;17.30;99.90
3727;DHT22;1879;45.876;12.300;2023-10-19T15:10:39;17.30;99.90
3727;DHT22;1879;45.876;12.300;2023-10-19T15:13:06;17.30;99.90
3727;DHT22;1879;45.876;12.300;2023-10-19T15:15:35;17.30;99.90
3727;DHT22;1879;45.876;12.300;2023-10-19T15:18:02;17.40;99.90
3727;DHT22;1879;45.876;12.300;2023-10-19T15:20:30;17.40;99.90
3727;DHT22;1879;45.876;12.300;2023-10-19T15:22:59;17.30;99.90
3727;DHT22;1879;45.876;12.300;2023-10-19T15:25:26;17.30;99.90
3727;DHT22;1879;45.876;12.300;2023-10-19T15:27:54;17.20;99.90
3727;DHT22;1879;45.876;12.300;2023-10-19T15:30:22;17.10;99.90
3727;DHT22;1879;45.876;12.300;2023-10-19T15:32:52;17.10;99.90
3727;DHT22;1879;45.876;12.300;2023-10-19T15:35:20;17.10;99.90
3727;DHT22;1879;45.876;12.300;2023-10-19T15:37:51;17.20;99.90
3727;DHT22;1879;45.876;12.300;2023-10-19T15:40:20;17.10;99.90
3727;DHT22;1879;45.876;12.300;2023-10-19T15:42:47;17.10;99.90
3727;DHT22;1879;45.876;12.300;2023-10-19T15:45:15;17.10;99.90
3727;DHT22;1879;45.876;12.300;2023-10-19T15:47:44;17.00;99.90
3727;DHT22;1879;45.876;12.300;2023-10-19T15:50:13;17.00;99.90
3727;DHT22;1879;45.876;12.300;2023-10-19T15:52:40;16.90;99.90
3727;DHT22;1879;45.876;12.300;2023-10-19T15:55:09;16.90;99.90
3727;DHT22;1879;45.876;12.300;2023-10-19T15:57:36;16.90;99.90
3727;DHT22;1879;45.876;12.300;2023-10-19T16:00:04;16.90;99.90